Suttons Bay, Michigan
Current Conditions -  °F | °C
As of 5:12 AM on Saturday 25 Oct 2014 (Local Time) from KTVC Reporting Station
Overcast Overcast  
Wind Chill: 54°   Ceiling: 1400
Heat Index: 54°   Visibility: 9mi
Dew Point: 48°   Wind: 6mph
Humidity: 80%   Direction: 210°SSW
Pressure: 29.76"   Gusts: NA
Location:  44.98°N, 85.65°W
Report Text: KTVC 250912Z AUTO 21005KT 9SM OVC014 12/09 A2976 RMK AO2 T01220089
Loading
Personal Weather Stations






























Interactive Weather Map
Tropical Storm Tracking
New forecast layout! Learn more

10-Day Weather Forecast

Advertisements
Track Severe Weather on mobile